Time,TemperatureF,DewpointF,PressureIn,WindDirection,WindDirectionDegrees,WindSpeedMPH,WindSpeedGustMPH,Humidity,HourlyPrecipIn,Conditions,Clouds,dailyrainin,SoftwareType,DateUTC
2013-02-18 00:07:00,13.2,7.0,30.25,WNW,294,3.0,-999.0,77,-99.99,,,0.00,weatherlink.com 1.10,2013-02-18 05:07:00,
2013-02-18 00:22:00,13.0,7.0,30.25,WNW,296,3.0,-999.0,76,-99.99,,,0.00,weatherlink.com 1.10,2013-02-18 05:22:00,
2013-02-18 00:37:00,12.5,7.0,30.25,NW,320,0.0,-999.0,77,-99.99,,,0.00,weatherlink.com 1.10,2013-02-18 05:37:00,
2013-02-18 00:52:00,11.9,6.0,30.25,NW,320,0.0,-999.0,78,-99.99,,,0.00,weatherlink.com 1.10,2013-02-18 05:52:00,
2013-02-18 01:07:00,11.1,6.0,30.25,NW,320,0.0,-999.0,79,-99.99,,,0.00,weatherlink.com 1.10,2013-02-18 06:07:00,
2013-02-18 01:22:00,10.3,6.0,30.25,NW,320,0.0,-999.0,81,-99.99,,,0.00,weatherlink.com 1.10,2013-02-18 06:22:00,
2013-02-18 01:37:00,9.7,6.0,30.26,NW,320,0.0,-999.0,83,-99.99,,,0.00,weatherlink.com 1.10,2013-02-18 06:37:00,
2013-02-18 01:52:00,9.5,6.0,30.26,NW,320,0.0,-999.0,84,-99.99,,,0.00,weatherlink.com 1.10,2013-02-18 06:52:00,
2013-02-18 02:07:00,9.6,6.0,30.27,NW,320,0.0,-999.0,85,-99.99,,,0.00,weatherlink.com 1.10,2013-02-18 07:07:00,
2013-02-18 02:22:00,9.3,6.0,30.27,NW,320,0.0,-999.0,86,-99.99,,,0.00,weatherlink.com 1.10,2013-02-18 07:22:00,
2013-02-18 02:37:00,9.5,6.0,30.27,NW,320,0.0,-999.0,87,-99.99,,,0.00,weatherlink.com 1.10,2013-02-18 07:37:00,
2013-02-18 02:52:00,9.2,6.0,30.28,NW,320,0.0,-999.0,86,-99.99,,,0.00,weatherlink.com 1.10,2013-02-18 07:52:00,
2013-02-18 03:07:00,8.8,6.0,30.28,NW,320,0.0,-999.0,87,-99.99,,,0.00,weatherlink.com 1.10,2013-02-18 08:07:00,
2013-02-18 03:22:00,8.4,5.0,30.28,NW,320,0.0,-999.0,87,-99.99,,,0.00,weatherlink.com 1.10,2013-02-18 08:22:00,
2013-02-18 03:37:00,7.9,5.0,30.28,NW,320,0.0,-999.0,88,-99.99,,,0.00,weatherlink.com 1.10,2013-02-18 08:37:00,
2013-02-18 03:52:00,7.6,5.0,30.29,NW,320,0.0,-999.0,88,-99.99,,,0.00,weatherlink.com 1.10,2013-02-18 08:52:00,
2013-02-18 04:07:00,7.5,5.0,30.29,NW,320,0.0,-999.0,88,-99.99,,,0.00,weatherlink.com 1.10,2013-02-18 09:07:00,
2013-02-18 04:22:00,7.4,5.0,30.30,NW,320,0.0,-999.0,88,-99.99,,,0.00,weatherlink.com 1.10,2013-02-18 09:22:00,
2013-02-18 04:37:00,7.2,4.0,30.30,NW,320,0.0,-999.0,88,-99.99,,,0.00,weatherlink.com 1.10,2013-02-18 09:37:00,
2013-02-18 04:52:00,7.1,4.0,30.30,NW,320,0.0,-999.0,88,-99.99,,,0.00,weatherlink.com 1.10,2013-02-18 09:52:00,
2013-02-18 05:07:00,6.9,4.0,30.31,NW,320,0.0,-999.0,88,-99.99,,,0.00,weatherlink.com 1.10,2013-02-18 10:07:00,
2013-02-18 05:22:00,6.7,4.0,30.31,NW,320,0.0,-999.0,88,-99.99,,,0.00,weatherlink.com 1.10,2013-02-18 10:22:00,
2013-02-18 05:52:00,6.4,4.0,30.31,NW,320,0.0,-999.0,88,-99.99,,,0.00,weatherlink.com 1.10,2013-02-18 10:52:00,
2013-02-18 06:07:00,6.5,4.0,30.31,NW,320,0.0,-999.0,88,-99.99,,,0.00,weatherlink.com 1.10,2013-02-18 11:07:00,
2013-02-18 06:22:00,6.6,4.0,30.31,SW,232,0.0,-999.0,88,-99.99,,,0.00,weatherlink.com 1.10,2013-02-18 11:22:00,
2013-02-18 06:37:00,6.4,3.0,30.31,SW,232,0.0,-999.0,87,-99.99,,,0.00,weatherlink.com 1.10,2013-02-18 11:37:00,
2013-02-18 06:52:00,6.2,3.0,30.31,SW,232,0.0,-999.0,87,-99.99,,,0.00,weatherlink.com 1.10,2013-02-18 11:52:00,
2013-02-18 07:07:00,6.4,4.0,30.32,South,189,0.0,-999.0,88,-99.99,,,0.00,weatherlink.com 1.10,2013-02-18 12:07:00,
2013-02-18 07:22:00,6.7,4.0,30.32,South,189,0.0,-999.0,88,-99.99,,,0.00,weatherlink.com 1.10,2013-02-18 12:22:00,
2013-02-18 07:37:00,6.9,4.0,30.32,SSW,194,0.0,-999.0,88,-99.99,,,0.00,weatherlink.com 1.10,2013-02-18 12:37:00,
2013-02-18 07:52:00,7.3,4.0,30.32,SSW,194,0.0,-999.0,87,-99.99,,,0.00,weatherlink.com 1.10,2013-02-18 12:52:00,
2013-02-18 08:07:00,8.0,5.0,30.31,SSW,194,0.0,-999.0,88,-99.99,,,0.00,weatherlink.com 1.10,2013-02-18 13:07:00,
2013-02-18 08:22:00,9.2,7.0,30.31,SSE,167,0.0,-999.0,89,-99.99,,,0.00,weatherlink.com 1.10,2013-02-18 13:22:00,
2013-02-18 08:37:00,11.1,8.0,30.31,South,170,0.0,-999.0,88,-99.99,,,0.00,weatherlink.com 1.10,2013-02-18 13:37:00,
2013-02-18 08:52:00,13.5,10.0,30.31,SSE,159,0.0,-999.0,85,-99.99,,,0.00,weatherlink.com 1.10,2013-02-18 13:52:00,
2013-02-18 09:07:00,15.7,11.0,30.30,ESE,103,0.0,-999.0,81,-99.99,,,0.00,weatherlink.com 1.10,2013-02-18 14:07:00,
2013-02-18 09:22:00,16.9,11.0,30.30,SSW,206,0.0,-999.0,79,-99.99,,,0.00,weatherlink.com 1.10,2013-02-18 14:22:00,
2013-02-18 09:37:00,18.2,12.0,30.30,SE,138,0.0,-999.0,77,-99.99,,,0.00,weatherlink.com 1.10,2013-02-18 14:37:00,
2013-02-18 09:52:00,19.9,13.0,30.30,SW,234,1.0,-999.0,75,-99.99,,,0.00,weatherlink.com 1.10,2013-02-18 14:52:00,
2013-02-18 10:07:00,21.2,14.0,30.30,SE,132,0.0,-999.0,73,-99.99,,,0.00,weatherlink.com 1.10,2013-02-18 15:07:00,
2013-02-18 10:22:00,22.4,14.0,30.30,SSW,198,0.0,-999.0,71,-99.99,,,0.00,weatherlink.com 1.10,2013-02-18 15:22:00,
2013-02-18 10:37:00,23.4,15.0,30.29,NNW,347,3.0,-999.0,69,-99.99,,,0.00,weatherlink.com 1.10,2013-02-18 15:37:00,
2013-02-18 10:52:00,24.5,15.0,30.28,West,277,3.0,-999.0,66,-99.99,,,0.00,weatherlink.com 1.10,2013-02-18 15:52:00,
2013-02-18 11:07:00,25.3,15.0,30.27,SW,225,0.0,-999.0,65,-99.99,,,0.00,weatherlink.com 1.10,2013-02-18 16:07:00,
2013-02-18 11:22:00,26.0,14.0,30.27,NW,305,1.0,-999.0,62,-99.99,,,0.00,weatherlink.com 1.10,2013-02-18 16:22:00,
2013-02-18 11:37:00,27.2,15.0,30.26,ESE,119,1.0,-999.0,61,-99.99,,,0.00,weatherlink.com 1.10,2013-02-18 16:37:00,
2013-02-18 11:52:00,27.8,15.0,30.25,South,190,5.0,-999.0,58,-99.99,,,0.00,weatherlink.com 1.10,2013-02-18 16:52:00,
2013-02-18 12:07:00,28.5,15.0,30.23,SSW,193,1.0,-999.0,57,-99.99,,,0.00,weatherlink.com 1.10,2013-02-18 17:07:00,
2013-02-18 12:22:00,29.1,16.0,30.23,SW,223,1.0,-999.0,58,-99.99,,,0.01,weatherlink.com 1.10,2013-02-18 17:22:00,
2013-02-18 12:37:00,29.7,16.0,30.23,ESE,105,1.0,-999.0,57,-99.99,,,0.01,weatherlink.com 1.10,2013-02-18 17:37:00,
2013-02-18 12:52:00,30.6,16.0,30.22,SW,230,3.0,-999.0,55,-99.99,,,0.01,weatherlink.com 1.10,2013-02-18 17:52:00,
2013-02-18 13:07:00,31.2,15.0,30.20,ESE,123,1.0,-999.0,51,-99.99,,,0.01,weatherlink.com 1.10,2013-02-18 18:07:00,
2013-02-18 13:22:00,31.5,14.0,30.19,ENE,73,3.0,-999.0,48,-99.99,,,0.02,weatherlink.com 1.10,2013-02-18 18:22:00,
2013-02-18 13:37:00,32.5,15.0,30.18,SE,127,0.0,-999.0,49,-99.99,,,0.02,weatherlink.com 1.10,2013-02-18 18:37:00,
2013-02-18 13:52:00,32.6,13.0,30.17,West,264,0.0,-999.0,44,-99.99,,,0.02,weatherlink.com 1.10,2013-02-18 18:52:00,
2013-02-18 14:07:00,33.0,16.0,30.17,NW,325,2.0,-999.0,49,-99.99,,,0.02,weatherlink.com 1.10,2013-02-18 19:07:00,
2013-02-18 14:22:00,33.7,15.0,30.16,ESE,116,1.0,-999.0,47,-99.99,,,0.02,weatherlink.com 1.10,2013-02-18 19:22:00,
2013-02-18 14:37:00,33.8,15.0,30.16,SW,229,1.0,-999.0,47,-99.99,,,0.02,weatherlink.com 1.10,2013-02-18 19:37:00,
2013-02-18 14:52:00,34.3,15.0,30.15,SW,215,1.0,-999.0,45,-99.99,,,0.02,weatherlink.com 1.10,2013-02-18 19:52:00,
2013-02-18 15:07:00,34.5,16.0,30.14,South,175,0.0,-999.0,46,-99.99,,,0.02,weatherlink.com 1.10,2013-02-18 20:07:00,
2013-02-18 15:22:00,34.4,15.0,30.13,SSW,208,0.0,-999.0,45,-99.99,,,0.02,weatherlink.com 1.10,2013-02-18 20:22:00,
2013-02-18 15:37:00,34.7,17.0,30.13,ENE,61,1.0,-999.0,49,-99.99,,,0.02,weatherlink.com 1.10,2013-02-18 20:37:00,
2013-02-18 15:52:00,35.0,15.0,30.11,SSE,148,0.0,-999.0,45,-99.99,,,0.02,weatherlink.com 1.10,2013-02-18 20:52:00,
2013-02-18 16:07:00,35.3,15.0,30.11,West,275,0.0,-999.0,44,-99.99,,,0.02,weatherlink.com 1.10,2013-02-18 21:07:00,
2013-02-18 16:22:00,35.9,15.0,30.10,SSW,195,4.0,-999.0,43,-99.99,,,0.02,weatherlink.com 1.10,2013-02-18 21:22:00,
2013-02-18 16:37:00,36.0,18.0,30.09,South,174,1.0,-999.0,49,-99.99,,,0.02,weatherlink.com 1.10,2013-02-18 21:37:00,
2013-02-18 16:52:00,35.7,16.0,30.08,NNE,14,0.0,-999.0,44,-99.99,,,0.02,weatherlink.com 1.10,2013-02-18 21:52:00,
2013-02-18 17:07:00,35.3,16.0,30.08,WSW,237,0.0,-999.0,45,-99.99,,,0.02,weatherlink.com 1.10,2013-02-18 22:07:00,
2013-02-18 17:22:00,34.7,16.0,30.07,South,191,0.0,-999.0,47,-99.99,,,0.02,weatherlink.com 1.10,2013-02-18 22:22:00,
2013-02-18 17:37:00,33.9,16.0,30.07,South,191,0.0,-999.0,48,-99.99,,,0.02,weatherlink.com 1.10,2013-02-18 22:37:00,
2013-02-18 17:52:00,33.0,17.0,30.06,South,191,0.0,-999.0,51,-99.99,,,0.02,weatherlink.com 1.10,2013-02-18 22:52:00,
2013-02-18 18:07:00,32.3,16.0,30.06,South,191,0.0,-999.0,51,-99.99,,,0.02,weatherlink.com 1.10,2013-02-18 23:07:00,
2013-02-18 18:22:00,31.7,18.0,30.05,South,191,0.0,-999.0,57,-99.99,,,0.02,weatherlink.com 1.10,2013-02-18 23:22:00,
2013-02-18 18:37:00,31.1,19.0,30.05,South,191,0.0,-999.0,61,-99.99,,,0.02,weatherlink.com 1.10,2013-02-18 23:37:00,
2013-02-18 18:52:00,31.1,19.0,30.03,South,191,0.0,-999.0,62,-99.99,,,0.02,weatherlink.com 1.10,2013-02-18 23:52:00,
2013-02-18 19:07:00,31.8,19.0,30.02,SSE,164,1.0,-999.0,60,-99.99,,,0.02,weatherlink.com 1.10,2013-02-19 00:07:00,
2013-02-18 19:22:00,32.6,18.0,30.01,SE,130,1.0,-999.0,55,-99.99,,,0.02,weatherlink.com 1.10,2013-02-19 00:22:00,
2013-02-18 19:37:00,32.9,19.0,30.01,SSW,207,0.0,-999.0,56,-99.99,,,0.02,weatherlink.com 1.10,2013-02-19 00:37:00,
2013-02-18 19:52:00,33.2,20.0,30.00,SW,221,0.0,-999.0,58,-99.99,,,0.02,weatherlink.com 1.10,2013-02-19 00:52:00,
2013-02-18 20:07:00,33.2,19.0,30.00,SSE,163,0.0,-999.0,57,-99.99,,,0.02,weatherlink.com 1.10,2013-02-19 01:07:00,
2013-02-18 20:22:00,33.4,19.0,29.98,SSE,153,0.0,-999.0,55,-99.99,,,0.02,weatherlink.com 1.10,2013-02-19 01:22:00,
2013-02-18 20:37:00,33.5,18.0,29.97,SSW,211,0.0,-999.0,54,-99.99,,,0.02,weatherlink.com 1.10,2013-02-19 01:37:00,
2013-02-18 20:52:00,33.4,19.0,29.97,SE,130,0.0,-999.0,55,-99.99,,,0.02,weatherlink.com 1.10,2013-02-19 01:52:00,
2013-02-18 21:07:00,33.7,19.0,29.96,SE,144,2.0,-999.0,56,-99.99,,,0.02,weatherlink.com 1.10,2013-02-19 02:07:00,
2013-02-18 21:22:00,33.7,20.0,29.96,SSW,211,0.0,-999.0,58,-99.99,,,0.02,weatherlink.com 1.10,2013-02-19 02:22:00,
2013-02-18 21:37:00,33.7,21.0,29.95,SW,223,5.0,-999.0,59,-99.99,,,0.02,weatherlink.com 1.10,2013-02-19 02:37:00,
2013-02-18 21:52:00,34.4,22.0,29.95,ESE,117,2.0,-999.0,60,-99.99,,,0.02,weatherlink.com 1.10,2013-02-19 02:52:00,
2013-02-18 22:07:00,34.8,22.0,29.94,SW,224,2.0,-999.0,59,-99.99,,,0.02,weatherlink.com 1.10,2013-02-19 03:07:00,
2013-02-18 22:22:00,35.2,22.0,29.93,SW,219,1.0,-999.0,58,-99.99,,,0.02,weatherlink.com 1.10,2013-02-19 03:22:00,
2013-02-18 22:37:00,36.1,22.0,29.93,SSW,202,0.0,-999.0,57,-99.99,,,0.02,weatherlink.com 1.10,2013-02-19 03:37:00,
2013-02-18 22:51:00,36.9,23.0,29.92,SW,223,3.0,-999.0,57,-99.99,,,0.02,weatherlink.com 1.10,2013-02-19 03:51:00,
2013-02-18 23:06:00,36.9,24.0,29.91,SW,217,1.0,-999.0,60,-99.99,,,0.02,weatherlink.com 1.10,2013-02-19 04:06:00,
2013-02-18 23:36:00,35.2,22.0,29.91,SW,215,0.0,-999.0,60,-99.99,,,0.02,weatherlink.com 1.10,2013-02-19 04:36:00,
2013-02-18 23:51:00,34.9,23.0,29.90,South,186,0.0,-999.0,63,-99.99,,,0.02,weatherlink.com 1.10,2013-02-19 04:51:00,